sensor_id;sensor_type;location;lat;lon;timestamp;P1;durP1;ratioP1;P2;durP2;ratioP2
17866;SDS011;9059;49.934;8.650;2024-03-23T00:51:11;11.63;;;4.32;;
17866;SDS011;9059;49.934;8.650;2024-03-23T01:01:13;10.48;;;4.38;;
17866;SDS011;9059;49.934;8.650;2024-03-23T01:11:16;8.48;;;4.10;;
17866;SDS011;9059;49.934;8.650;2024-03-23T01:21:18;11.77;;;3.38;;
17866;SDS011;9059;49.934;8.650;2024-03-23T01:31:21;9.45;;;4.18;;
17866;SDS011;9059;49.934;8.650;2024-03-23T01:41:23;7.93;;;4.18;;
17866;SDS011;9059;49.934;8.650;2024-03-23T01:51:27;10.75;;;5.80;;
17866;SDS011;9059;49.934;8.650;2024-03-23T02:01:30;11.57;;;5.38;;
17866;SDS011;9059;49.934;8.650;2024-03-23T02:11:33;14.00;;;5.63;;
17866;SDS011;9059;49.934;8.650;2024-03-23T02:21:35;14.27;;;5.57;;
17866;SDS011;9059;49.934;8.650;2024-03-23T02:31:38;16.30;;;6.13;;
17866;SDS011;9059;49.934;8.650;2024-03-23T02:41:40;10.65;;;5.10;;
17866;SDS011;9059;49.934;8.650;2024-03-23T02:51:43;13.60;;;5.80;;
17866;SDS011;9059;49.934;8.650;2024-03-23T03:01:48;10.25;;;4.90;;
17866;SDS011;9059;49.934;8.650;2024-03-23T03:11:52;11.05;;;5.78;;
17866;SDS011;9059;49.934;8.650;2024-03-23T03:21:53;9.68;;;5.63;;
17866;SDS011;9059;49.934;8.650;2024-03-23T03:31:56;11.90;;;5.28;;
17866;SDS011;9059;49.934;8.650;2024-03-23T03:41:58;14.70;;;4.97;;
17866;SDS011;9059;49.934;8.650;2024-03-23T03:52:02;11.15;;;5.20;;
17866;SDS011;9059;49.934;8.650;2024-03-23T04:02:04;17.00;;;5.57;;
17866;SDS011;9059;49.934;8.650;2024-03-23T04:12:08;16.23;;;6.07;;
17866;SDS011;9059;49.934;8.650;2024-03-23T04:22:10;32.67;;;12.25;;
17866;SDS011;9059;49.934;8.650;2024-03-23T04:32:13;16.42;;;6.45;;
17866;SDS011;9059;49.934;8.650;2024-03-23T04:42:15;11.40;;;4.78;;
17866;SDS011;9059;49.934;8.650;2024-03-23T04:52:18;2.17;;;1.05;;
17866;SDS011;9059;49.934;8.650;2024-03-23T05:02:20;1.77;;;0.73;;
17866;SDS011;9059;49.934;8.650;2024-03-23T05:12:24;3.80;;;1.33;;
17866;SDS011;9059;49.934;8.650;2024-03-23T05:22:25;1.35;;;0.70;;
17866;SDS011;9059;49.934;8.650;2024-03-23T05:32:29;3.13;;;0.55;;
17866;SDS011;9059;49.934;8.650;2024-03-23T05:42:31;2.85;;;0.57;;
17866;SDS011;9059;49.934;8.650;2024-03-23T05:52:34;1.50;;;0.55;;
17866;SDS011;9059;49.934;8.650;2024-03-23T06:02:36;1.13;;;0.60;;
17866;SDS011;9059;49.934;8.650;2024-03-23T06:12:39;0.80;;;0.60;;
17866;SDS011;9059;49.934;8.650;2024-03-23T06:22:41;0.57;;;0.30;;
17866;SDS011;9059;49.934;8.650;2024-03-23T06:32:45;0.10;;;0.10;;
17866;SDS011;9059;49.934;8.650;2024-03-23T06:42:47;0.75;;;0.30;;
17866;SDS011;9059;49.934;8.650;2024-03-23T06:52:50;0.30;;;0.30;;
17866;SDS011;9059;49.934;8.650;2024-03-23T07:02:52;0.20;;;0.20;;
17866;SDS011;9059;49.934;8.650;2024-03-23T07:12:55;3.22;;;0.32;;
17866;SDS011;9059;49.934;8.650;2024-03-23T07:22:57;3.80;;;0.40;;
17866;SDS011;9059;49.934;8.650;2024-03-23T07:33:00;4.95;;;0.50;;
17866;SDS011;9059;49.934;8.650;2024-03-23T07:43:02;7.50;;;0.60;;
17866;SDS011;9059;49.934;8.650;2024-03-23T07:53:06;4.43;;;0.70;;
17866;SDS011;9059;49.934;8.650;2024-03-23T08:03:08;7.50;;;0.90;;
17866;SDS011;9059;49.934;8.650;2024-03-23T08:13:11;1.67;;;0.50;;
17866;SDS011;9059;49.934;8.650;2024-03-23T08:23:13;2.22;;;0.85;;
17866;SDS011;9059;49.934;8.650;2024-03-23T08:33:16;4.68;;;1.40;;
17866;SDS011;9059;49.934;8.650;2024-03-23T08:43:18;5.65;;;1.25;;
17866;SDS011;9059;49.934;8.650;2024-03-23T08:53:21;2.22;;;0.85;;
17866;SDS011;9059;49.934;8.650;2024-03-23T09:03:23;2.42;;;1.15;;
17866;SDS011;9059;49.934;8.650;2024-03-23T09:13:27;5.85;;;1.80;;
17866;SDS011;9059;49.934;8.650;2024-03-23T09:23:29;4.63;;;1.27;;
17866;SDS011;9059;49.934;8.650;2024-03-23T09:33:32;3.25;;;1.40;;
17866;SDS011;9059;49.934;8.650;2024-03-23T09:43:34;9.52;;;1.60;;
17866;SDS011;9059;49.934;8.650;2024-03-23T09:53:40;5.85;;;1.33;;
17866;SDS011;9059;49.934;8.650;2024-03-23T10:03:43;4.82;;;1.30;;
17866;SDS011;9059;49.934;8.650;2024-03-23T10:13:46;5.32;;;1.38;;
17866;SDS011;9059;49.934;8.650;2024-03-23T10:23:48;8.15;;;1.20;;
17866;SDS011;9059;49.934;8.650;2024-03-23T10:33:53;5.22;;;1.30;;
17866;SDS011;9059;49.934;8.650;2024-03-23T10:43:55;3.83;;;0.95;;
17866;SDS011;9059;49.934;8.650;2024-03-23T10:54:00;3.78;;;1.00;;
17866;SDS011;9059;49.934;8.650;2024-03-23T11:04:06;1.05;;;0.32;;
17866;SDS011;9059;49.934;8.650;2024-03-23T11:14:12;3.72;;;0.60;;
17866;SDS011;9059;49.934;8.650;2024-03-23T11:24:23;3.90;;;0.87;;
17866;SDS011;9059;49.934;8.650;2024-03-23T11:34:27;2.90;;;1.10;;
17866;SDS011;9059;49.934;8.650;2024-03-23T11:44:28;4.77;;;0.80;;
17866;SDS011;9059;49.934;8.650;2024-03-23T11:54:32;1.00;;;0.38;;
17866;SDS011;9059;49.934;8.650;2024-03-23T12:04:33;0.82;;;0.30;;
17866;SDS011;9059;49.934;8.650;2024-03-23T12:14:38;2.50;;;0.43;;
17866;SDS011;9059;49.934;8.650;2024-03-23T12:24:40;0.52;;;0.30;;
17866;SDS011;9059;49.934;8.650;2024-03-23T12:34:47;3.28;;;0.68;;
17866;SDS011;9059;49.934;8.650;2024-03-23T12:44:49;3.50;;;1.00;;
17866;SDS011;9059;49.934;8.650;2024-03-23T12:54:52;2.95;;;1.23;;
17866;SDS011;9059;49.934;8.650;2024-03-23T13:04:54;4.88;;;1.23;;
17866;SDS011;9059;49.934;8.650;2024-03-23T13:14:57;9.98;;;1.10;;
17866;SDS011;9059;49.934;8.650;2024-03-23T13:24:59;1.95;;;0.60;;
17866;SDS011;9059;49.934;8.650;2024-03-23T13:35:03;2.00;;;0.50;;
17866;SDS011;9059;49.934;8.650;2024-03-23T13:45:07;2.03;;;0.40;;
17866;SDS011;9059;49.934;8.650;2024-03-23T13:55:19;7.40;;;1.05;;
17866;SDS011;9059;49.934;8.650;2024-03-23T14:05:21;1.98;;;0.60;;
17866;SDS011;9059;49.934;8.650;2024-03-23T14:15:24;3.10;;;0.95;;
17866;SDS011;9059;49.934;8.650;2024-03-23T14:25:26;1.75;;;0.90;;
17866;SDS011;9059;49.934;8.650;2024-03-23T14:35:31;1.77;;;0.52;;
17866;SDS011;9059;49.934;8.650;2024-03-23T14:45:33;2.78;;;0.47;;
17866;SDS011;9059;49.934;8.650;2024-03-23T14:55:36;1.10;;;0.30;;
17866;SDS011;9059;49.934;8.650;2024-03-23T15:05:38;1.73;;;0.22;;
17866;SDS011;9059;49.934;8.650;2024-03-23T15:15:41;0.85;;;0.28;;
17866;SDS011;9059;49.934;8.650;2024-03-23T15:25:45;1.20;;;0.30;;
17866;SDS011;9059;49.934;8.650;2024-03-23T15:35:48;2.03;;;0.47;;
17866;SDS011;9059;49.934;8.650;2024-03-23T15:45:53;0.10;;;0.10;;
17866;SDS011;9059;49.934;8.650;2024-03-23T15:55:57;0.22;;;0.10;;
17866;SDS011;9059;49.934;8.650;2024-03-23T16:06:00;1.00;;;0.30;;
17866;SDS011;9059;49.934;8.650;2024-03-23T16:16:06;0.38;;;0.13;;
17866;SDS011;9059;49.934;8.650;2024-03-23T16:26:08;0.90;;;0.30;;
17866;SDS011;9059;49.934;8.650;2024-03-23T16:36:12;1.17;;;0.30;;
17866;SDS011;9059;49.934;8.650;2024-03-23T16:46:14;1.25;;;0.40;;
17866;SDS011;9059;49.934;8.650;2024-03-23T16:56:17;0.10;;;0.10;;
17866;SDS011;9059;49.934;8.650;2024-03-23T17:06:19;0.63;;;0.28;;
17866;SDS011;9059;49.934;8.650;2024-03-23T17:16:25;1.70;;;0.50;;
17866;SDS011;9059;49.934;8.650;2024-03-23T17:26:30;0.82;;;0.30;;
17866;SDS011;9059;49.934;8.650;2024-03-23T17:36:34;1.65;;;0.77;;
17866;SDS011;9059;49.934;8.650;2024-03-23T17:46:38;1.47;;;0.70;;
17866;SDS011;9059;49.934;8.650;2024-03-23T17:56:41;1.25;;;0.55;;
17866;SDS011;9059;49.934;8.650;2024-03-23T18:06:43;0.10;;;0.10;;
17866;SDS011;9059;49.934;8.650;2024-03-23T18:16:48;0.60;;;0.30;;
17866;SDS011;9059;49.934;8.650;2024-03-23T18:26:50;3.90;;;0.40;;
17866;SDS011;9059;49.934;8.650;2024-03-23T18:36:53;0.33;;;0.20;;
17866;SDS011;9059;49.934;8.650;2024-03-23T18:46:55;0.60;;;0.20;;
17866;SDS011;9059;49.934;8.650;2024-03-23T18:56:58;0.97;;;0.40;;
17866;SDS011;9059;49.934;8.650;2024-03-23T19:07:00;2.37;;;0.50;;
17866;SDS011;9059;49.934;8.650;2024-03-23T19:17:03;1.97;;;0.47;;
17866;SDS011;9059;49.934;8.650;2024-03-23T19:27:05;4.80;;;0.60;;
17866;SDS011;9059;49.934;8.650;2024-03-23T19:37:08;1.00;;;0.37;;
17866;SDS011;9059;49.934;8.650;2024-03-23T19:47:10;1.77;;;0.30;;
17866;SDS011;9059;49.934;8.650;2024-03-23T19:57:13;0.33;;;0.20;;
17866;SDS011;9059;49.934;8.650;2024-03-23T20:07:15;1.47;;;0.47;;
17866;SDS011;9059;49.934;8.650;2024-03-23T20:17:18;1.73;;;0.97;;
17866;SDS011;9059;49.934;8.650;2024-03-23T20:27:20;2.50;;;0.60;;
17866;SDS011;9059;49.934;8.650;2024-03-23T20:37:23;1.70;;;0.50;;
17866;SDS011;9059;49.934;8.650;2024-03-23T20:47:25;2.93;;;1.20;;
17866;SDS011;9059;49.934;8.650;2024-03-23T20:57:28;3.47;;;1.30;;
17866;SDS011;9059;49.934;8.650;2024-03-23T21:07:30;2.37;;;1.23;;
17866;SDS011;9059;49.934;8.650;2024-03-23T21:17:34;2.43;;;0.80;;
17866;SDS011;9059;49.934;8.650;2024-03-23T21:27:36;2.83;;;1.17;;
17866;SDS011;9059;49.934;8.650;2024-03-23T21:37:39;2.30;;;0.83;;
17866;SDS011;9059;49.934;8.650;2024-03-23T21:47:41;1.93;;;1.07;;
17866;SDS011;9059;49.934;8.650;2024-03-23T21:57:47;3.17;;;1.00;;
17866;SDS011;9059;49.934;8.650;2024-03-23T22:07:49;3.17;;;0.80;;
17866;SDS011;9059;49.934;8.650;2024-03-23T22:17:52;2.07;;;1.17;;
17866;SDS011;9059;49.934;8.650;2024-03-23T22:27:54;3.00;;;1.10;;
17866;SDS011;9059;49.934;8.650;2024-03-23T22:37:57;3.27;;;0.90;;
17866;SDS011;9059;49.934;8.650;2024-03-23T22:47:59;5.13;;;1.10;;
17866;SDS011;9059;49.934;8.650;2024-03-23T22:58:03;3.60;;;0.83;;
17866;SDS011;9059;49.934;8.650;2024-03-23T23:08:04;1.57;;;0.80;;
17866;SDS011;9059;49.934;8.650;2024-03-23T23:18:08;4.70;;;0.97;;
17866;SDS011;9059;49.934;8.650;2024-03-23T23:28:10;3.63;;;1.07;;
17866;SDS011;9059;49.934;8.650;2024-03-23T23:38:13;3.00;;;0.87;;
17866;SDS011;9059;49.934;8.650;2024-03-23T23:48:16;2.00;;;0.80;;
17866;SDS011;9059;49.934;8.650;2024-03-23T23:58:19;2.30;;;0.77;;
